Time;durP1;ratioP1;P1;durP2;ratioP2;P2;SDS_P1;SDS_P2;PMS_P1;PMS_P2;Temp;Humidity;BMP_temperature;BMP_pressure;BME280_temperature;BME280_humidity;BME280_pressure;Samples;Min_cycle;Max_cycle;Signal;HPM_P1;HPM_P2
2023/09/17 00:01:14;;;;;;;;;;;25.90;70.60;;;26.14;43.39;98422.00;4936175;28;124334;-87
2023/09/17 00:03:40;;;;;;;;;;;25.90;70.70;;;26.10;43.90;98430.56;4934802;28;124406;-86
2023/09/17 00:06:08;;;;;;;;;;;25.90;70.90;;;26.09;43.60;98433.84;4927834;28;118924;-87
2023/09/17 00:08:34;;;;;;;;;;;25.80;71.00;;;26.03;43.82;98424.19;4936092;28;118764;-86
2023/09/17 00:11:01;;;;;;;;;;;25.80;71.10;;;26.01;43.92;98444.47;4938226;28;124341;-86
2023/09/17 00:13:28;;;;;;;;;;;25.80;71.30;;;25.97;43.97;98427.50;4928396;28;123899;-86
2023/09/17 00:15:55;;;;;;;;;;;25.70;71.30;;;25.94;44.10;98442.50;4950935;28;119212;-87
2023/09/17 00:18:23;;;;;;;;;;;25.70;71.50;;;25.91;44.54;98439.72;4922522;28;119410;-86
2023/09/17 00:20:51;;;;;;;;;;;25.70;71.70;;;25.88;44.21;98429.25;4933207;28;123542;-86
2023/09/17 00:23:17;;;;;;;;;;;25.70;71.90;;;25.83;44.19;98439.00;4941925;28;122829;-87
2023/09/17 00:25:48;;;;;;;;;;;25.60;72.00;;;25.80;44.63;98434.19;4932305;28;119876;-87
2023/09/17 00:28:14;;;;;;;;;;;25.60;72.00;;;25.76;44.72;98433.41;4922754;28;118849;-86
2023/09/17 00:30:41;;;;;;;;;;;25.50;72.10;;;25.74;44.37;98435.88;4926326;28;123874;-86
2023/09/17 00:33:07;;;;;;;;;;;25.50;72.30;;;25.72;44.37;98436.31;4943945;28;124308;-87
2023/09/17 00:35:33;;;;;;;;;;;25.50;72.50;;;25.70;44.61;98435.13;4938600;28;120281;-86
2023/09/17 00:37:59;;;;;;;;;;;25.50;72.60;;;25.69;45.20;98433.53;4936323;28;118943;-87
2023/09/17 00:40:31;;;;;;;;;;;25.50;72.80;;;25.66;45.18;98435.16;4945248;28;124606;-87
2023/09/17 00:43:01;;;;;;;;;;;25.40;72.90;;;25.64;44.95;98425.50;4947875;28;124151;-87
2023/09/17 00:45:30;;;;;;;;;;;25.40;73.10;;;25.60;45.18;98424.72;4944413;28;119455;-86
2023/09/17 00:47:57;;;;;;;;;;;25.40;73.30;;;25.57;45.40;98432.03;4908555;28;118334;-87
2023/09/17 00:50:23;;;;;;;;;;;25.40;73.50;;;25.55;45.17;98435.31;4931084;28;123255;-87
2023/09/17 00:52:51;;;;;;;;;;;25.30;73.60;;;25.52;45.70;98436.16;4946286;28;124073;-87
2023/09/17 00:55:20;;;;;;;;;;;25.30;73.80;;;25.48;45.89;98429.72;4946010;28;119264;-87
2023/09/17 00:57:47;;;;;;;;;;;25.30;74.00;;;25.45;45.77;98435.44;4941003;28;118545;-87
2023/09/17 01:00:14;;;;;;;;;;;25.30;74.10;;;25.41;45.66;98426.97;4932374;28;122966;-88
2023/09/17 01:02:43;;;;;;;;;;;25.20;74.30;;;25.38;45.68;98419.31;4912214;28;123446;-85
2023/09/17 01:05:09;;;;;;;;;;;25.20;74.40;;;25.36;45.69;98427.41;4932020;28;119443;-85
2023/09/17 01:07:38;;;;;;;;;;;25.10;74.40;;;25.33;45.83;98425.44;4913393;28;119596;-86
2023/09/17 01:10:05;;;;;;;;;;;25.10;74.70;;;25.30;46.28;98435.56;4945327;28;123416;-86
2023/09/17 01:12:32;;;;;;;;;;;25.10;75.00;;;25.29;46.29;98433.19;4948253;28;123743;-86
2023/09/17 01:14:58;;;;;;;;;;;25.10;75.20;;;25.23;46.32;98437.69;4951126;28;119575;-86
2023/09/17 01:17:27;;;;;;;;;;;25.00;75.20;;;25.23;46.37;98443.34;4935497;28;118637;-86
2023/09/17 01:19:54;;;;;;;;;;;25.00;75.40;;;25.18;46.51;98429.66;4918032;28;124365;-86
2023/09/17 01:22:37;;;;;;;;;;;25.00;75.60;;;25.13;46.50;98445.81;4949968;28;124762;-86
2023/09/17 01:25:12;;;;;;;;;;;24.90;75.60;;;25.07;46.54;98436.19;4931459;28;120522;-87
2023/09/17 01:27:39;;;;;;;;;;;24.90;75.90;;;25.07;46.97;98450.34;4948163;28;119433;-87
2023/09/17 01:30:15;;;;;;;;;;;24.90;76.20;;;25.06;46.73;98447.91;4931314;28;123565;-87
2023/09/17 01:32:45;;;;;;;;;;;24.90;76.40;;;25.03;46.84;98449.53;4948337;28;123997;-86
2023/09/17 01:35:14;;;;;;;;;;;24.80;76.50;;;25.02;47.17;98444.34;4932162;28;119194;-86
2023/09/17 01:37:45;;;;;;;;;;;24.80;76.80;;;25.01;47.43;98448.34;4922371;28;118802;-85
2023/09/17 01:40:12;;;;;;;;;;;24.80;77.00;;;24.98;47.23;98447.16;4932477;28;123329;-86
2023/09/17 01:42:44;;;;;;;;;;;24.70;77.20;;;24.99;47.17;98451.63;4963373;28;123541;-86
2023/09/17 01:45:16;;;;;;;;;;;24.70;77.40;;;24.97;47.50;98459.72;4928388;28;121122;-86
2023/09/17 01:47:45;;;;;;;;;;;24.70;77.60;;;24.94;47.36;98466.19;4926824;28;118768;-86
2023/09/17 01:50:11;;;;;;;;;;;24.70;77.90;;;24.92;47.85;98462.97;4926785;28;124016;-86
2023/09/17 01:52:39;;;;;;;;;;;24.70;78.10;;;24.90;47.87;98466.25;4948809;28;122823;-85
2023/09/17 01:55:08;;;;;;;;;;;24.70;78.30;;;24.89;47.66;98469.47;4929635;28;118308;-86
2023/09/17 01:57:35;;;;;;;;;;;24.60;78.30;;;24.88;47.81;98463.03;4945549;28;120217;-86
2023/09/17 02:00:14;;;;;;;;;;;24.60;78.50;;;24.87;48.09;98474.72;4921874;28;123481;-86
2023/09/17 02:02:46;;;;;;;;;;;24.60;78.70;;;24.84;48.33;98469.91;4938153;28;123779;-86
2023/09/17 02:05:20;;;;;;;;;;;24.60;78.90;;;24.82;48.26;98466.69;4956256;28;119286;-86
2023/09/17 02:07:47;;;;;;;;;;;24.60;79.10;;;24.81;48.16;98456.63;4919976;28;118668;-86
2023/09/17 02:10:14;;;;;;;;;;;24.50;79.20;;;24.80;48.20;98469.16;4931423;28;124257;-86
2023/09/17 02:12:40;;;;;;;;;;;24.50;79.40;;;24.79;48.43;98461.88;4932098;28;122989;-87
2023/09/17 02:15:09;;;;;;;;;;;24.50;79.50;;;24.78;48.31;98460.28;4947867;28;120717;-87
2023/09/17 02:17:35;;;;;;;;;;;24.50;79.70;;;24.77;48.52;98455.84;4929551;28;119639;-86
2023/09/17 02:20:02;;;;;;;;;;;24.50;79.90;;;24.75;48.54;98461.94;4962372;28;124156;-86
2023/09/17 02:22:28;;;;;;;;;;;24.50;80.00;;;24.74;48.77;98463.13;4931358;28;122099;-86
2023/09/17 02:24:54;;;;;;;;;;;24.50;80.20;;;24.74;48.51;98462.31;4932892;28;119297;-86
2023/09/17 02:27:21;;;;;;;;;;;24.50;80.30;;;24.71;49.00;98457.50;4946460;28;118829;-86
2023/09/17 02:29:47;;;;;;;;;;;24.40;80.50;;;24.69;48.89;98458.75;4933507;28;124363;-86
2023/09/17 02:32:14;;;;;;;;;;;24.40;80.60;;;24.68;49.07;98459.16;4938312;28;123574;-86
2023/09/17 02:34:40;;;;;;;;;;;24.40;80.70;;;24.65;48.84;98459.97;4937873;28;118644;-87
2023/09/17 02:37:06;;;;;;;;;;;24.40;80.90;;;24.63;49.10;98463.22;4942285;28;118879;-87
2023/09/17 02:39:35;;;;;;;;;;;24.40;81.00;;;24.62;49.00;98455.16;4942516;28;124113;-86
2023/09/17 02:42:01;;;;;;;;;;;24.30;81.10;;;24.60;48.83;98455.56;4946795;28;124106;-87
2023/09/17 02:44:27;;;;;;;;;;;24.30;81.20;;;24.58;49.29;98463.69;4932428;28;119463;-87
2023/09/17 02:46:54;;;;;;;;;;;24.30;81.40;;;24.55;49.15;98458.84;4946597;28;118745;-86
2023/09/17 02:49:23;;;;;;;;;;;24.30;81.50;;;24.53;49.36;98460.47;4945611;28;124820;-86
2023/09/17 02:51:50;;;;;;;;;;;24.30;81.70;;;24.51;49.06;98460.91;4930685;28;123252;-87
2023/09/17 02:54:16;;;;;;;;;;;24.30;81.80;;;24.49;49.56;98462.53;4929459;28;119395;-86
2023/09/17 02:56:42;;;;;;;;;;;24.20;81.90;;;24.48;49.39;98475.06;4931253;28;118150;-87
2023/09/17 02:59:11;;;;;;;;;;;24.20;82.00;;;24.45;49.40;98471.03;4940500;28;124224;-88
2023/09/17 03:01:38;;;;;;;;;;;24.20;82.10;;;24.43;49.59;98467.78;4934593;28;123833;-87
2023/09/17 03:04:04;;;;;;;;;;;24.20;82.40;;;24.40;49.28;98472.25;4961797;28;120612;-87
2023/09/17 03:06:31;;;;;;;;;;;24.20;82.50;;;24.38;49.69;98477.50;4958810;28;119322;-86
2023/09/17 03:08:57;;;;;;;;;;;24.10;82.60;;;24.38;49.79;98485.16;4927931;28;124400;-86
2023/09/17 03:11:26;;;;;;;;;;;24.10;82.70;;;24.36;49.64;98479.13;4941849;28;123888;-86
2023/09/17 03:13:52;;;;;;;;;;;24.10;82.80;;;24.33;49.81;98480.75;4933532;28;119631;-87
2023/09/17 03:16:19;;;;;;;;;;;24.10;83.00;;;24.30;49.89;98481.56;4929115;28;118870;-86
2023/09/17 03:18:47;;;;;;;;;;;24.00;83.10;;;24.29;49.92;98479.16;4928424;28;124496;-86
2023/09/17 03:21:14;;;;;;;;;;;24.00;83.20;;;24.25;50.02;98484.84;4927321;28;124041;-87
2023/09/17 03:23:40;;;;;;;;;;;24.00;83.40;;;24.20;50.20;98483.22;4918607;28;117748;-86
2023/09/17 03:26:08;;;;;;;;;;;24.00;83.80;;;24.16;50.17;98479.66;4947237;28;118599;-87
2023/09/17 03:28:35;;;;;;;;;;;23.90;83.80;;;24.14;50.52;98481.28;4925206;28;123939;-87
2023/09/17 03:31:01;;;;;;;;;;;23.90;84.70;;;24.12;50.57;98487.31;4928478;28;123876;-87
2023/09/17 03:33:29;;;;;;;;;;;23.90;84.20;;;24.10;50.66;98486.94;4944900;28;119687;-86
2023/09/17 03:35:55;;;;;;;;;;;23.90;84.40;;;24.07;50.72;98484.91;4956056;28;118900;-87
2023/09/17 03:38:24;;;;;;;;;;;23.80;84.60;;;24.05;50.82;98480.94;4932336;28;124139;-86
2023/09/17 03:40:52;;;;;;;;;;;23.80;84.70;;;24.03;50.89;98486.97;4946112;28;124387;-87
2023/09/17 03:43:19;;;;;;;;;;;23.80;84.90;;;23.98;50.92;98498.69;4950518;28;118696;-86
2023/09/17 03:45:45;;;;;;;;;;;23.70;85.10;;;23.96;51.00;98487.00;4934255;28;118737;-86
2023/09/17 03:48:12;;;;;;;;;;;23.70;85.30;;;23.93;50.93;98491.44;4936837;28;124233;-86
2023/09/17 03:50:39;;;;;;;;;;;23.70;85.60;;;23.92;51.10;98484.19;4939408;28;123270;-87
2023/09/17 03:53:06;;;;;;;;;;;23.70;85.80;;;23.91;51.43;98488.25;4953632;28;120738;-87
2023/09/17 03:55:36;;;;;;;;;;;23.70;85.90;;;23.89;51.42;98490.66;4932148;28;119795;-86
2023/09/17 03:58:04;;;;;;;;;;;23.60;86.00;;;23.88;51.50;98488.25;4918392;28;124450;-86
2023/09/17 04:00:31;;;;;;;;;;;23.60;86.20;;;23.87;51.25;98489.47;4914955;28;122479;-87
2023/09/17 04:02:57;;;;;;;;;;;23.60;86.40;;;23.85;51.58;98478.56;4917797;28;119133;-86
2023/09/17 04:05:24;;;;;;;;;;;23.60;86.60;;;23.83;51.59;98471.72;4944930;28;117915;-86
2023/09/17 04:07:50;;;;;;;;;;;23.60;86.70;;;23.81;51.77;98478.59;4922004;28;124281;-86
2023/09/17 04:10:17;;;;;;;;;;;23.60;87.00;;;23.78;51.86;98478.63;4946501;28;124174;-87
2023/09/17 04:12:44;;;;;;;;;;;23.50;87.10;;;23.71;52.13;98473.81;4940812;28;119720;-88
2023/09/17 04:15:17;;;;;;;;;;;23.50;87.40;;;23.65;52.18;98475.41;4944176;28;118859;-87
2023/09/17 04:17:47;;;;;;;;;;;23.50;87.60;;;23.60;52.50;98467.38;4950140;28;124376;-87
2023/09/17 04:20:18;;;;;;;;;;;23.40;88.40;;;23.53;52.68;98459.72;4915902;28;123898;-87
2023/09/17 04:22:47;;;;;;;;;;;23.40;88.20;;;23.50;52.55;98468.19;4922804;28;119475;-87
2023/09/17 04:25:16;;;;;;;;;;;23.30;88.40;;;23.48;52.72;98464.97;4930349;28;119069;-87
2023/09/17 04:27:44;;;;;;;;;;;23.30;88.50;;;23.48;52.88;98473.44;4921582;28;124350;-87
2023/09/17 04:30:13;;;;;;;;;;;23.30;88.70;;;23.48;52.75;98470.63;4927820;28;123988;-87
2023/09/17 04:32:41;;;;;;;;;;;23.20;88.90;;;23.45;52.84;98477.88;4930734;28;119584;-86
2023/09/17 04:35:09;;;;;;;;;;;23.20;89.00;;;23.45;52.86;98477.88;4930307;28;118775;-87
2023/09/17 04:37:39;;;;;;;;;;;23.20;89.20;;;23.46;52.92;98484.34;4949396;28;123316;-87
2023/09/17 04:40:11;;;;;;;;;;;23.20;89.30;;;23.45;52.88;98477.88;4931026;28;123257;-86
2023/09/17 04:42:38;;;;;;;;;;;23.20;89.50;;;23.45;53.10;98488.34;4946737;28;120492;-86
2023/09/17 04:45:08;;;;;;;;;;;23.20;89.60;;;23.45;52.81;98491.97;4922635;28;120255;-87
2023/09/17 04:47:36;;;;;;;;;;;23.20;89.80;;;23.44;52.96;98487.56;4924839;28;125824;-86
2023/09/17 04:50:09;;;;;;;;;;;23.20;90.00;;;23.42;53.12;98487.16;4949598;28;124072;-87
2023/09/17 04:52:36;;;;;;;;;;;23.20;90.00;;;23.40;53.27;98494.41;4940632;28;119492;-86
2023/09/17 04:55:04;;;;;;;;;;;23.10;90.10;;;23.37;53.41;98502.50;4944695;28;118689;-86
2023/09/17 04:57:33;;;;;;;;;;;23.10;90.20;;;23.35;53.46;98496.44;4941213;28;123542;-86
2023/09/17 05:00:10;;;;;;;;;;;23.10;90.20;;;23.34;53.61;98506.09;4926189;28;122370;-86
2023/09/17 05:02:39;;;;;;;;;;;23.10;90.30;;;23.33;53.75;98493.22;4943448;28;119808;-87
2023/09/17 05:05:06;;;;;;;;;;;23.10;90.40;;;23.33;53.68;98504.50;4922600;28;118675;-86
2023/09/17 05:07:33;;;;;;;;;;;23.10;90.50;;;23.32;53.67;98502.06;4943599;28;124020;-86
2023/09/17 05:09:59;;;;;;;;;;;23.10;90.60;;;23.30;53.62;98508.13;4929161;28;124317;-87
2023/09/17 05:12:28;;;;;;;;;;;23.00;90.60;;;23.31;53.74;98503.28;4934615;28;119294;-86
2023/09/17 05:14:54;;;;;;;;;;;23.00;90.60;;;23.29;53.65;98503.72;4942844;28;118514;-86
2023/09/17 05:17:20;;;;;;;;;;;23.00;90.70;;;23.29;53.86;98517.81;4953278;28;123665;-87
2023/09/17 05:19:46;;;;;;;;;;;23.00;90.70;;;23.29;54.03;98520.63;4912578;28;124363;-86
2023/09/17 05:22:15;;;;;;;;;;;23.00;90.80;;;23.29;54.08;98525.44;4947596;28;119509;-86
2023/09/17 05:24:41;;;;;;;;;;;23.00;90.90;;;23.29;53.99;98520.63;4955381;28;119053;-85
2023/09/17 05:27:07;;;;;;;;;;;23.00;90.90;;;23.27;54.13;98523.03;4943006;28;124630;-88
2023/09/17 05:29:34;;;;;;;;;;;23.00;91.00;;;23.25;54.48;98530.28;4927658;28;122772;-85
2023/09/17 05:32:00;;;;;;;;;;;23.00;91.10;;;23.20;54.54;98527.88;4929565;28;120432;-86
2023/09/17 05:34:26;;;;;;;;;;;22.90;91.40;;;23.12;54.91;98527.06;4947803;28;119696;-87
2023/09/17 05:36:52;;;;;;;;;;;22.90;91.50;;;23.07;55.21;98535.94;4938518;28;122481;-85
2023/09/17 05:39:21;;;;;;;;;;;22.90;91.60;;;23.04;55.15;98536.75;4929070;28;123816;-87
2023/09/17 05:41:50;;;;;;;;;;;22.90;91.70;;;23.03;55.11;98537.97;4948281;28;120238;-87
2023/09/17 05:44:16;;;;;;;;;;;22.80;91.60;;;23.03;55.16;98540.78;4931296;28;119082;-86
2023/09/17 05:46:43;;;;;;;;;;;22.80;91.70;;;23.05;55.24;98538.34;4942660;28;124303;-86
2023/09/17 05:49:09;;;;;;;;;;;22.80;91.70;;;23.09;55.14;98539.16;4910728;28;123978;-86
2023/09/17 05:51:35;;;;;;;;;;;22.80;91.70;;;23.13;55.10;98542.75;4933372;28;118504;-86
2023/09/17 05:54:02;;;;;;;;;;;22.80;91.80;;;23.15;54.93;98549.59;4924649;28;118682;-87
2023/09/17 05:56:28;;;;;;;;;;;22.90;91.90;;;23.17;54.94;98543.59;4935606;28;124231;-87
2023/09/17 05:58:54;;;;;;;;;;;22.90;91.90;;;23.19;55.29;98541.16;4938226;28;124144;-87
2023/09/17 06:01:21;;;;;;;;;;;22.90;92.00;;;23.18;55.03;98548.00;4932683;28;118974;-85
2023/09/17 06:03:47;;;;;;;;;;;22.90;92.10;;;23.22;55.10;98553.66;4957439;28;118918;-86
2023/09/17 06:06:13;;;;;;;;;;;22.90;92.10;;;23.26;54.98;98543.16;4942121;28;124872;-86
2023/09/17 06:08:39;;;;;;;;;;;22.90;92.10;;;23.31;54.87;98545.59;4916748;28;123060;-86
2023/09/17 06:11:06;;;;;;;;;;;22.90;92.10;;;23.37;54.88;98555.22;4932241;28;120335;-86
2023/09/17 06:13:32;;;;;;;;;;;23.00;92.20;;;23.42;54.69;98551.22;4957120;28;117803;-86
2023/09/17 06:15:58;;;;;;;;;;;23.00;92.20;;;23.48;54.82;98546.75;4947143;28;125305;-86
2023/09/17 06:18:29;;;;;;;;;;;23.10;92.20;;;23.51;54.73;98548.78;4928486;28;123870;-85
2023/09/17 06:20:56;;;;;;;;;;;23.10;92.20;;;23.50;54.97;98542.31;4954739;28;120473;-87
2023/09/17 06:23:22;;;;;;;;;;;23.10;92.20;;;23.50;54.81;98536.69;4925587;28;120522;-87
2023/09/17 06:25:48;;;;;;;;;;;23.10;92.20;;;23.51;54.62;98548.78;4942222;28;124157;-87
2023/09/17 06:28:15;;;;;;;;;;;23.10;92.30;;;23.45;55.11;98541.94;4931862;28;124511;-87
2023/09/17 06:30:42;;;;;;;;;;;23.10;92.40;;;23.44;55.14;98543.16;4943637;28;118843;-87
2023/09/17 06:33:10;;;;;;;;;;;23.10;92.50;;;23.50;54.89;98547.16;4932496;28;118769;-87
2023/09/17 06:35:38;;;;;;;;;;;23.10;92.50;;;23.53;55.02;98541.50;4951739;28;124309;-87
2023/09/17 06:38:05;;;;;;;;;;;23.10;92.50;;;23.53;55.37;98543.53;4933905;28;124112;-87
2023/09/17 06:40:31;;;;;;;;;;;23.10;92.60;;;23.51;55.32;98546.78;4932161;28;119440;-86
2023/09/17 06:42:57;;;;;;;;;;;23.20;92.70;;;23.53;55.38;98543.53;4916620;28;117926;-87
2023/09/17 06:45:24;;;;;;;;;;;23.20;92.70;;;23.58;55.13;98552.38;4932690;28;124184;-86
2023/09/17 06:47:55;;;;;;;;;;;23.20;92.70;;;23.69;55.12;98551.56;4923096;28;123431;-88
2023/09/17 06:50:21;;;;;;;;;;;23.20;92.70;;;23.80;54.58;98547.53;4955776;28;119443;-86
2023/09/17 06:52:49;;;;;;;;;;;23.40;92.70;;;23.92;54.55;98542.66;4940005;28;119269;-88
2023/09/17 06:55:15;;;;;;;;;;;23.40;92.60;;;24.01;54.33;98548.66;4915466;28;124028;-84
2023/09/17 06:57:43;;;;;;;;;;;23.50;92.60;;;24.07;54.00;98544.19;4938715;28;124306;-86
2023/09/17 07:00:12;;;;;;;;;;;23.50;92.50;;;24.12;53.95;98549.41;4925487;28;119609;-82
2023/09/17 07:02:38;;;;;;;;;;;23.60;92.40;;;24.14;53.96;98554.66;4931679;28;118049;-85
2023/09/17 07:05:07;;;;;;;;;;;23.60;92.30;;;24.17;53.70;98542.53;4945605;28;123602;-84
2023/09/17 07:07:33;;;;;;;;;;;23.70;92.30;;;24.24;53.49;98551.78;4955892;28;123938;-85
2023/09/17 07:10:00;;;;;;;;;;;23.70;92.20;;;24.33;53.24;98547.72;4939500;28;120802;-84
2023/09/17 07:12:29;;;;;;;;;;;23.80;92.10;;;24.35;53.00;98548.13;4941567;28;119017;-84
2023/09/17 07:14:55;;;;;;;;;;;23.80;92.00;;;24.32;53.25;98540.47;4927723;28;123375;-82
2023/09/17 07:17:21;;;;;;;;;;;23.80;91.90;;;24.29;53.24;98541.28;4957074;28;123777;-83
2023/09/17 07:19:50;;;;;;;;;;;23.80;91.90;;;24.29;53.53;98536.44;4930510;28;118541;-83
2023/09/17 07:22:19;;;;;;;;;;;23.80;91.90;;;24.35;52.83;98545.28;4912593;28;119065;-84
2023/09/17 07:24:45;;;;;;;;;;;23.90;91.90;;;24.38;52.76;98545.25;4924120;28;123142;-83
2023/09/17 07:27:11;;;;;;;;;;;23.90;91.80;;;24.48;52.77;98543.63;4922983;28;124630;-84
2023/09/17 07:29:38;;;;;;;;;;;24.00;91.80;;;24.59;52.74;98550.03;4941986;28;120013;-84
2023/09/17 07:32:04;;;;;;;;;;;24.00;92.10;;;24.67;52.74;98550.78;4911635;28;117485;-84
2023/09/17 07:34:31;;;;;;;;;;;24.10;91.70;;;24.71;52.36;98550.75;4922616;28;123643;-85
2023/09/17 07:36:59;;;;;;;;;;;24.20;91.60;;;24.79;52.18;98552.31;4918839;28;124578;-85
2023/09/17 07:39:28;;;;;;;;;;;24.20;91.60;;;24.89;51.95;98546.59;4929173;28;119037;-86
2023/09/17 07:41:54;;;;;;;;;;;24.30;91.50;;;24.99;52.05;98555.41;4936828;28;118793;-84
2023/09/17 07:44:24;;;;;;;;;;;24.40;91.50;;;25.06;51.59;98550.47;4940405;28;124123;-83
2023/09/17 07:46:52;;;;;;;;;;;24.50;91.40;;;25.07;51.54;98566.25;4916404;28;123187;-85
2023/09/17 07:49:26;;;;;;;;;;;24.50;91.30;;;25.02;51.83;98566.69;4941337;28;119579;-84
2023/09/17 07:51:52;;;;;;;;;;;24.50;91.20;;;24.97;51.63;98578.44;4943695;28;118734;-86
2023/09/17 07:54:21;;;;;;;;;;;24.50;91.20;;;24.98;52.05;98574.38;4928487;28;123504;-83
2023/09/17 07:56:47;;;;;;;;;;;24.50;91.20;;;25.01;51.57;98578.41;4924614;28;124441;-83
2023/09/17 07:59:14;;;;;;;;;;;24.50;91.10;;;25.03;51.70;98568.28;4914957;28;120964;-82
2023/09/17 08:01:40;;;;;;;;;;;24.60;91.10;;;25.05;51.50;98574.31;4931029;28;119630;-81
2023/09/17 08:04:10;;;;;;;;;;;24.60;91.10;;;25.08;51.89;98575.53;4933014;28;124296;-83
2023/09/17 08:06:36;;;;;;;;;;;24.60;91.10;;;25.17;51.34;98578.69;4922005;28;123975;-80
2023/09/17 08:09:22;;;;;;;;;;;24.60;91.10;;;25.25;51.29;98571.75;4930226;28;118225;-82
2023/09/17 08:11:49;;;;;;;;;;;24.70;91.00;;;25.33;50.87;98566.84;4928170;28;118680;-83
2023/09/17 08:14:15;;;;;;;;;;;24.80;91.00;;;25.44;50.76;98573.25;4911531;28;123877;-80
2023/09/17 08:16:44;;;;;;;;;;;24.90;90.90;;;25.51;50.58;98578.81;4910138;28;123929;-82
2023/09/17 08:19:12;;;;;;;;;;;25.00;90.80;;;25.61;50.43;98576.31;4917153;28;119641;-82
2023/09/17 08:21:39;;;;;;;;;;;25.00;90.60;;;25.69;49.96;98577.84;4899726;28;118713;-81
2023/09/17 08:24:05;;;;;;;;;;;25.00;90.80;;;25.78;49.78;98578.13;4905274;28;125006;-82
2023/09/17 08:26:34;;;;;;;;;;;25.20;90.40;;;25.88;49.26;98579.28;4920580;28;124003;-83
2023/09/17 08:29:01;;;;;;;;;;;25.30;90.20;;;25.95;49.32;98582.84;4909377;28;119236;-82
2023/09/17 08:31:28;;;;;;;;;;;25.40;90.00;;;26.05;48.53;98586.75;4905320;28;118062;-82
2023/09/17 08:33:57;;;;;;;;;;;25.40;89.60;;;26.13;48.57;98570.50;4894048;28;124259;-81
2023/09/17 08:36:23;;;;;;;;;;;25.50;89.40;;;26.25;48.36;98577.63;4918634;28;123331;-82
2023/09/17 08:38:54;;;;;;;;;;;25.60;88.70;;;26.34;48.12;98570.22;4894236;28;118762;-84
2023/09/17 08:41:22;;;;;;;;;;;25.70;88.60;;;26.43;48.06;98573.34;4898043;28;117170;-82
2023/09/17 08:43:53;;;;;;;;;;;27.10;89.40;;;26.52;47.79;98580.53;4905423;28;124484;-82
2023/09/17 08:46:21;;;;;;;;;;;25.90;88.20;;;26.55;47.24;98572.00;4934716;28;123797;-83
2023/09/17 08:48:48;;;;;;;;;;;26.00;87.80;;;26.57;47.60;98571.56;4902641;28;119603;-83
2023/09/17 08:51:19;;;;;;;;;;;26.00;87.50;;;26.61;47.29;98575.97;4926161;28;119562;-83
2023/09/17 08:54:06;;;;;;;;;;;26.10;87.10;;;26.65;47.36;98571.06;4925721;28;125037;-84
2023/09/17 08:56:36;;;;;;;;;;;26.10;86.80;;;26.72;46.32;98567.31;4929973;28;123911;-84
2023/09/17 08:59:27;;;;;;;;;;;26.20;86.00;;;26.79;46.57;98572.88;4922298;28;118266;-83
2023/09/17 09:01:54;;;;;;;;;;;26.20;85.90;;;26.91;46.49;98570.69;4950900;28;118845;-83
2023/09/17 09:04:27;;;;;;;;;;;26.30;85.90;;;26.99;46.40;98563.66;4929135;28;124261;-84
2023/09/17 09:06:54;;;;;;;;;;;26.40;85.70;;;27.07;46.11;98565.16;4918040;28;123873;-83
2023/09/17 09:09:23;;;;;;;;;;;26.50;85.30;;;27.14;45.65;98576.41;4915652;28;120008;-82
2023/09/17 09:11:49;;;;;;;;;;;26.50;85.00;;;27.22;45.43;98562.94;4928786;28;118095;-82
2023/09/17 09:14:16;;;;;;;;;;;26.60;84.40;;;27.26;45.10;98567.28;4951415;28;123790;-82
2023/09/17 09:16:47;;;;;;;;;;;26.70;83.90;;;27.30;44.95;98567.25;4916108;28;124302;-82
2023/09/17 09:19:13;;;;;;;;;;;26.70;83.50;;;27.31;44.58;98561.13;4931360;28;119489;-81
2023/09/17 09:21:39;;;;;;;;;;;26.80;82.70;;;27.37;43.12;98566.31;4928645;28;118770;-80
2023/09/17 09:24:06;;;;;;;;;;;26.80;81.20;;;27.40;42.64;98562.59;4914012;28;123370;-81
2023/09/17 09:26:35;;;;;;;;;;;26.80;79.80;;;27.42;42.12;98555.25;4933225;28;124040;-84
2023/09/17 09:29:06;;;;;;;;;;;26.90;79.00;;;27.48;42.07;98562.03;4956937;28;120355;-81
2023/09/17 09:31:35;;;;;;;;;;;26.90;78.50;;;27.54;41.95;98565.22;4948542;28;119538;-81
2023/09/17 09:34:02;;;;;;;;;;;27.00;78.20;;;27.58;41.97;98548.91;4930474;28;124285;-82
2023/09/17 09:36:32;;;;;;;;;;;27.10;78.10;;;27.61;41.34;98545.19;4929272;28;124080;-83
2023/09/17 09:39:01;;;;;;;;;;;27.10;77.00;;;27.64;41.30;98550.00;4939069;28;120404;-82
2023/09/17 09:41:29;;;;;;;;;;;27.10;76.70;;;27.69;41.21;98549.50;4917801;28;117820;-86
2023/09/17 09:43:59;;;;;;;;;;;27.20;76.70;;;27.71;41.03;98547.03;4930546;28;124804;-83
2023/09/17 09:46:26;;;;;;;;;;;27.20;76.30;;;27.77;40.86;98545.28;4921940;28;123877;-82
2023/09/17 09:48:52;;;;;;;;;;;27.30;76.10;;;27.84;41.03;98549.28;4936940;28;119440;-77
2023/09/17 09:51:21;;;;;;;;;;;27.40;76.00;;;27.89;40.71;98537.41;4923528;28;118701;-77
2023/09/17 09:53:48;;;;;;;;;;;27.40;75.20;;;27.93;40.27;98541.75;4930004;28;124079;-76
2023/09/17 09:56:14;;;;;;;;;;;27.50;75.00;;;27.98;39.88;98534.78;4937778;28;124202;-76
2023/09/17 09:58:41;;;;;;;;;;;27.50;74.30;;;28.00;40.30;98526.63;4942999;28;120027;-76
2023/09/17 10:01:07;;;;;;;;;;;27.80;74.40;;;28.03;39.99;98525.75;4923460;28;119532;-76
2023/09/17 10:03:34;;;;;;;;;;;27.60;74.00;;;28.08;40.24;98525.25;4928740;28;123451;-76
2023/09/17 10:06:06;;;;;;;;;;;27.60;73.90;;;28.13;39.75;98523.91;4909901;28;122742;-76
2023/09/17 10:08:34;;;;;;;;;;;27.60;73.70;;;28.19;39.96;98517.28;4912515;28;119818;-76
2023/09/17 10:11:01;;;;;;;;;;;27.70;73.70;;;28.24;39.73;98512.31;4940577;28;119274;-77
2023/09/17 10:13:30;;;;;;;;;;;27.70;73.40;;;28.30;40.03;98504.91;4940177;28;123628;-77
2023/09/17 10:15:57;;;;;;;;;;;27.80;73.70;;;28.36;39.84;98505.97;4957886;28;124542;-80
2023/09/17 10:18:26;;;;;;;;;;;27.90;73.70;;;28.43;39.64;98500.16;4912014;28;118248;-78
2023/09/17 10:20:53;;;;;;;;;;;27.90;73.20;;;28.50;39.85;98493.50;4933687;28;118661;-78
2023/09/17 10:23:21;;;;;;;;;;;28.00;73.20;;;28.58;39.35;98492.09;4917406;28;124535;-78
2023/09/17 10:25:48;;;;;;;;;;;28.10;73.30;;;28.68;39.29;98496.72;4926290;28;123432;-78
2023/09/17 10:28:15;;;;;;;;;;;28.10;72.70;;;28.76;39.25;98500.22;4946834;28;120246;-80
2023/09/17 10:30:44;;;;;;;;;;;28.20;72.30;;;28.83;38.82;98494.34;4925108;28;120675;-78
2023/09/17 10:33:13;;;;;;;;;;;28.30;72.10;;;28.94;38.24;98488.41;4928676;28;124246;-78
2023/09/17 10:35:43;;;;;;;;;;;28.40;71.40;;;29.01;37.98;98480.47;4941122;28;122893;-76
2023/09/17 10:38:09;;;;;;;;;;;28.40;70.40;;;29.08;37.57;98484.44;4949878;28;118622;-77
2023/09/17 10:40:37;;;;;;;;;;;28.50;70.10;;;29.16;37.18;98489.47;4931991;28;120472;-78
2023/09/17 10:43:06;;;;;;;;;;;28.60;69.00;;;29.23;36.86;98489.31;4922356;28;124183;-77
2023/09/17 10:45:40;;;;;;;;;;;28.60;69.00;;;29.31;37.13;98481.34;4945928;28;124030;-78
2023/09/17 10:48:08;;;;;;;;;;;28.70;69.10;;;29.41;37.23;98474.56;4941039;28;119566;-79
2023/09/17 10:50:37;;;;;;;;;;;28.80;68.60;;;29.47;36.73;98472.81;4935615;28;118921;-79
2023/09/17 10:53:04;;;;;;;;;;;28.90;68.10;;;29.55;36.71;98475.44;4907079;28;124270;-78
2023/09/17 10:55:36;;;;;;;;;;;29.00;67.90;;;29.64;36.39;98469.94;4910476;28;124025;-77
2023/09/17 10:58:13;;;;;;;;;;;29.00;67.40;;;29.72;36.67;98474.19;4916499;28;119378;-78
2023/09/17 11:00:42;;;;;;;;;;;29.10;67.60;;;29.81;36.15;98468.59;4930425;28;119041;-77
2023/09/17 11:03:13;;;;;;;;;;;29.20;67.30;;;29.91;36.17;98467.50;4928998;28;124158;-76
2023/09/17 11:05:40;;;;;;;;;;;29.30;67.30;;;30.03;35.61;98459.44;4914833;28;123907;-77
2023/09/17 11:08:07;;;;;;;;;;;29.40;66.60;;;30.09;35.68;98464.13;4927156;28;120112;-77
2023/09/17 11:10:41;;;;;;;;;;;29.50;66.50;;;30.16;35.53;98457.41;4928257;28;118798;-77
2023/09/17 11:13:16;;;;;;;;;;;29.60;66.00;;;30.22;35.45;98458.44;4928469;28;124155;-77